Aviation Digital Data Service (ADDS)

Output produced by METARs form (0658 UTC 30 October 2020)
found at http://www.aviationweather.gov/metar/data/
 
METAR text: ZBAA 300630Z VRB04MPS CAVOK 18/00 Q1025 NOSIG
Conditions at: ZBAA (BEIJING/PEKING , CN) observed 0630 UTC 30 October 2020
Temperature: 18.0°C (64°F)
Dewpoint: 0.0°C (32°F) [RH = 30%]
Pressure (altimeter): 30.27 inches Hg (1025.0 mb)
Winds: variable direction winds at 9 MPH (8 knots; 4.1 m/s)
Visibility: 6 or more miles (10+ km)
Ceiling: ceiling and visibility are OK
Clouds: unknown
Weather: no significant weather observed at this time

METAR text: ZBAA 300600Z 19004MPS 120V260 CAVOK 18/M00 Q1025 NOSIG
Conditions at: ZBAA (BEIJING/PEKING , CN) observed 0600 UTC 30 October 2020
Temperature: 18.0°C (64°F)
Dewpoint: 0.0°C (32°F) [RH = 30%]
Pressure (altimeter): 30.27 inches Hg (1025.0 mb)
Winds: from the S (190 degrees) at 9 MPH (8 knots; 4.1 m/s)
Visibility: 6 or more miles (10+ km)
Ceiling: ceiling and visibility are OK
Clouds: unknown
Weather: no significant weather observed at this time

METAR text: ZBAA 300530Z 21002MPS 160V260 CAVOK 18/M00 Q1026 NOSIG
Conditions at: ZBAA (BEIJING/PEKING , CN) observed 0530 UTC 30 October 2020
Temperature: 18.0°C (64°F)
Dewpoint: 0.0°C (32°F) [RH = 30%]
Pressure (altimeter): 30.30 inches Hg (1026.0 mb)
Winds: from the SSW (210 degrees) at 5 MPH (4 knots; 2.1 m/s)
Visibility: 6 or more miles (10+ km)
Ceiling: ceiling and visibility are OK
Clouds: unknown
Weather: no significant weather observed at this time

METAR text: ZBAA 300500Z 20003MPS 160V240 CAVOK 17/M00 Q1026 NOSIG
Conditions at: ZBAA (BEIJING/PEKING , CN) observed 0500 UTC 30 October 2020
Temperature: 17.0°C (63°F)
Dewpoint: 0.0°C (32°F) [RH = 32%]
Pressure (altimeter): 30.30 inches Hg (1026.0 mb)
Winds: from the SSW (200 degrees) at 7 MPH (6 knots; 3.1 m/s)
Visibility: 6 or more miles (10+ km)
Ceiling: ceiling and visibility are OK
Clouds: unknown
Weather: no significant weather observed at this time

METAR text: ZBAA 300430Z 18002MPS 130V280 CAVOK 17/00 Q1027 NOSIG
Conditions at: ZBAA (BEIJING/PEKING , CN) observed 0430 UTC 30 October 2020
Temperature: 17.0°C (63°F)
Dewpoint: 0.0°C (32°F) [RH = 32%]
Pressure (altimeter): 30.32 inches Hg (1027.0 mb)
Winds: from the S (180 degrees) at 5 MPH (4 knots; 2.1 m/s)
Visibility: 6 or more miles (10+ km)
Ceiling: ceiling and visibility are OK
Clouds: unknown
Weather: no significant weather observed at this time

METAR text: ZBAA 300400Z 13002MPS 080V220 CAVOK 15/01 Q1027 NOSIG
Conditions at: ZBAA (BEIJING/PEKING , CN) observed 0400 UTC 30 October 2020
Temperature: 15.0°C (59°F)
Dewpoint: 1.0°C (34°F) [RH = 39%]
Pressure (altimeter): 30.32 inches Hg (1027.0 mb)
Winds: from the SE (130 degrees) at 5 MPH (4 knots; 2.1 m/s)
Visibility: 6 or more miles (10+ km)
Ceiling: ceiling and visibility are OK
Clouds: unknown
Weather: no significant weather observed at this time

METAR text: ZBAA 300330Z VRB01MPS CAVOK 16/M01 Q1028 NOSIG
Conditions at: ZBAA (BEIJING/PEKING , CN) observed 0330 UTC 30 October 2020
Temperature: 16.0°C (61°F)
Dewpoint: -1.0°C (30°F) [RH = 31%]
Pressure (altimeter): 30.35 inches Hg (1028.0 mb)
Winds: variable direction winds at 2 MPH (2 knots; 1.0 m/s)
Visibility: 6 or more miles (10+ km)
Ceiling: ceiling and visibility are OK
Clouds: unknown
Weather: no significant weather observed at this time

METAR text: ZBAA 300300Z VRB01MPS CAVOK 15/M01 Q1028 NOSIG
Conditions at: ZBAA (BEIJING/PEKING , CN) observed 0300 UTC 30 October 2020
Temperature: 15.0°C (59°F)
Dewpoint: -1.0°C (30°F) [RH = 33%]
Pressure (altimeter): 30.35 inches Hg (1028.0 mb)
Winds: variable direction winds at 2 MPH (2 knots; 1.0 m/s)
Visibility: 6 or more miles (10+ km)
Ceiling: ceiling and visibility are OK
Clouds: unknown
Weather: no significant weather observed at this time

METAR text: ZBAA 300230Z VRB01MPS CAVOK 14/M02 Q1029 NOSIG
Conditions at: ZBAA (BEIJING/PEKING , CN) observed 0230 UTC 30 October 2020
Temperature: 14.0°C (57°F)
Dewpoint: -2.0°C (28°F) [RH = 33%]
Pressure (altimeter): 30.38 inches Hg (1029.0 mb)
Winds: variable direction winds at 2 MPH (2 knots; 1.0 m/s)
Visibility: 6 or more miles (10+ km)
Ceiling: ceiling and visibility are OK
Clouds: unknown
Weather: no significant weather observed at this time

METAR text: ZBAA 300200Z VRB01MPS CAVOK 13/M01 Q1029 NOSIG
Conditions at: ZBAA (BEIJING/PEKING , CN) observed 0200 UTC 30 October 2020
Temperature: 13.0°C (55°F)
Dewpoint: -1.0°C (30°F) [RH = 38%]
Pressure (altimeter): 30.38 inches Hg (1029.0 mb)
Winds: variable direction winds at 2 MPH (2 knots; 1.0 m/s)
Visibility: 6 or more miles (10+ km)
Ceiling: ceiling and visibility are OK
Clouds: unknown
Weather: no significant weather observed at this time

METAR text: ZBAA 300130Z 35002MPS 330V030 CAVOK 12/M02 Q1029 NOSIG
Conditions at: ZBAA (BEIJING/PEKING , CN) observed 0130 UTC 30 October 2020
Temperature: 12.0°C (54°F)
Dewpoint: -2.0°C (28°F) [RH = 38%]
Pressure (altimeter): 30.38 inches Hg (1029.0 mb)
Winds: from the N (350 degrees) at 5 MPH (4 knots; 2.1 m/s)
Visibility: 6 or more miles (10+ km)
Ceiling: ceiling and visibility are OK
Clouds: unknown
Weather: no significant weather observed at this time

METAR text: ZBAA 300100Z VRB01MPS CAVOK 09/00 Q1029 NOSIG
Conditions at: ZBAA (BEIJING/PEKING , CN) observed 0100 UTC 30 October 2020
Temperature: 9.0°C (48°F)
Dewpoint: 0.0°C (32°F) [RH = 53%]
Pressure (altimeter): 30.38 inches Hg (1029.0 mb)
Winds: variable direction winds at 2 MPH (2 knots; 1.0 m/s)
Visibility: 6 or more miles (10+ km)
Ceiling: ceiling and visibility are OK
Clouds: unknown
Weather: no significant weather observed at this time

METAR text: ZBAA 300030Z 35001MPS CAVOK 08/01 Q1029 NOSIG
Conditions at: ZBAA (BEIJING/PEKING , CN) observed 0030 UTC 30 October 2020
Temperature: 8.0°C (46°F)
Dewpoint: 1.0°C (34°F) [RH = 61%]
Pressure (altimeter): 30.38 inches Hg (1029.0 mb)
Winds: from the N (350 degrees) at 2 MPH (2 knots; 1.0 m/s)
Visibility: 6 or more miles (10+ km)
Ceiling: ceiling and visibility are OK
Clouds: unknown
Weather: no significant weather observed at this time

METAR text: ZBAA 300000Z 36003MPS CAVOK 05/01 Q1029 NOSIG
Conditions at: ZBAA (BEIJING/PEKING , CN) observed 0000 UTC 30 October 2020
Temperature: 5.0°C (41°F)
Dewpoint: 1.0°C (34°F) [RH = 75%]
Pressure (altimeter): 30.38 inches Hg (1029.0 mb)
Winds: from the N (360 degrees) at 7 MPH (6 knots; 3.1 m/s)
Visibility: 6 or more miles (10+ km)
Ceiling: ceiling and visibility are OK
Clouds: unknown
Weather: no significant weather observed at this time

METAR text: ZBAA 292330Z 35002MPS CAVOK 03/M00 Q1028 NOSIG
Conditions at: ZBAA (BEIJING/PEKING , CN) observed 2330 UTC 29 October 2020
Temperature: 3.0°C (37°F)
Dewpoint: 0.0°C (32°F) [RH = 81%]
Pressure (altimeter): 30.35 inches Hg (1028.0 mb)
Winds: from the N (350 degrees) at 5 MPH (4 knots; 2.1 m/s)
Visibility: 6 or more miles (10+ km)
Ceiling: ceiling and visibility are OK
Clouds: unknown
Weather: no significant weather observed at this time

METAR text: ZBAA 292300Z 35002MPS CAVOK 01/M01 Q1028 NOSIG
Conditions at: ZBAA (BEIJING/PEKING , CN) observed 2300 UTC 29 October 2020
Temperature: 1.0°C (34°F)
Dewpoint: -1.0°C (30°F) [RH = 86%]
Pressure (altimeter): 30.35 inches Hg (1028.0 mb)
Winds: from the N (350 degrees) at 5 MPH (4 knots; 2.1 m/s)
Visibility: 6 or more miles (10+ km)
Ceiling: ceiling and visibility are OK
Clouds: unknown
Weather: no significant weather observed at this time

METAR text: ZBAA 292230Z VRB01MPS CAVOK 02/M01 Q1028 NOSIG
Conditions at: ZBAA (BEIJING/PEKING , CN) observed 2230 UTC 29 October 2020
Temperature: 2.0°C (36°F)
Dewpoint: -1.0°C (30°F) [RH = 80%]
Pressure (altimeter): 30.35 inches Hg (1028.0 mb)
Winds: variable direction winds at 2 MPH (2 knots; 1.0 m/s)
Visibility: 6 or more miles (10+ km)
Ceiling: ceiling and visibility are OK
Clouds: unknown
Weather: no significant weather observed at this time

METAR text: ZBAA 292200Z 35001MPS CAVOK 01/M01 Q1028 NOSIG
Conditions at: ZBAA (BEIJING/PEKING , CN) observed 2200 UTC 29 October 2020
Temperature: 1.0°C (34°F)
Dewpoint: -1.0°C (30°F) [RH = 86%]
Pressure (altimeter): 30.35 inches Hg (1028.0 mb)
Winds: from the N (350 degrees) at 2 MPH (2 knots; 1.0 m/s)
Visibility: 6 or more miles (10+ km)
Ceiling: ceiling and visibility are OK
Clouds: unknown
Weather: no significant weather observed at this time

METAR text: ZBAA 292130Z 35001MPS CAVOK 01/M01 Q1028 NOSIG
Conditions at: ZBAA (BEIJING/PEKING , CN) observed 2130 UTC 29 October 2020
Temperature: 1.0°C (34°F)
Dewpoint: -1.0°C (30°F) [RH = 86%]
Pressure (altimeter): 30.35 inches Hg (1028.0 mb)
Winds: from the N (350 degrees) at 2 MPH (2 knots; 1.0 m/s)
Visibility: 6 or more miles (10+ km)
Ceiling: ceiling and visibility are OK
Clouds: unknown
Weather: no significant weather observed at this time

METAR text: ZBAA 292100Z 00000MPS CAVOK 01/M00 Q1028 NOSIG
Conditions at: ZBAA (BEIJING/PEKING , CN) observed 2100 UTC 29 October 2020
Temperature: 1.0°C (34°F)
Dewpoint: 0.0°C (32°F) [RH = 93%]
Pressure (altimeter): 30.35 inches Hg (1028.0 mb)
Winds: calm
Visibility: 6 or more miles (10+ km)
Ceiling: ceiling and visibility are OK
Clouds: unknown
Weather: no significant weather observed at this time

METAR text: ZBAA 292030Z VRB01MPS CAVOK 02/M00 Q1028 NOSIG
Conditions at: ZBAA (BEIJING/PEKING , CN) observed 2030 UTC 29 October 2020
Temperature: 2.0°C (36°F)
Dewpoint: 0.0°C (32°F) [RH = 87%]
Pressure (altimeter): 30.35 inches Hg (1028.0 mb)
Winds: variable direction winds at 2 MPH (2 knots; 1.0 m/s)
Visibility: 6 or more miles (10+ km)
Ceiling: ceiling and visibility are OK
Clouds: unknown
Weather: no significant weather observed at this time

METAR text: ZBAA 292000Z 36002MPS CAVOK 02/M01 Q1028 NOSIG
Conditions at: ZBAA (BEIJING/PEKING , CN) observed 2000 UTC 29 October 2020
Temperature: 2.0°C (36°F)
Dewpoint: -1.0°C (30°F) [RH = 80%]
Pressure (altimeter): 30.35 inches Hg (1028.0 mb)
Winds: from the N (360 degrees) at 5 MPH (4 knots; 2.1 m/s)
Visibility: 6 or more miles (10+ km)
Ceiling: ceiling and visibility are OK
Clouds: unknown
Weather: no significant weather observed at this time

METAR text: ZBAA 291930Z 35002MPS CAVOK 01/00 Q1028 NOSIG
Conditions at: ZBAA (BEIJING/PEKING , CN) observed 1930 UTC 29 October 2020
Temperature: 1.0°C (34°F)
Dewpoint: 0.0°C (32°F) [RH = 93%]
Pressure (altimeter): 30.35 inches Hg (1028.0 mb)
Winds: from the N (350 degrees) at 5 MPH (4 knots; 2.1 m/s)
Visibility: 6 or more miles (10+ km)
Ceiling: ceiling and visibility are OK
Clouds: unknown
Weather: no significant weather observed at this time

METAR text: ZBAA 291900Z 36002MPS CAVOK 01/M00 Q1028 NOSIG
Conditions at: ZBAA (BEIJING/PEKING , CN) observed 1900 UTC 29 October 2020
Temperature: 1.0°C (34°F)
Dewpoint: 0.0°C (32°F) [RH = 93%]
Pressure (altimeter): 30.35 inches Hg (1028.0 mb)
Winds: from the N (360 degrees) at 5 MPH (4 knots; 2.1 m/s)
Visibility: 6 or more miles (10+ km)
Ceiling: ceiling and visibility are OK
Clouds: unknown
Weather: no significant weather observed at this time

METAR text: ZBAA 291830Z 36002MPS CAVOK 02/00 Q1028 NOSIG
Conditions at: ZBAA (BEIJING/PEKING , CN) observed 1830 UTC 29 October 2020
Temperature: 2.0°C (36°F)
Dewpoint: 0.0°C (32°F) [RH = 87%]
Pressure (altimeter): 30.35 inches Hg (1028.0 mb)
Winds: from the N (360 degrees) at 5 MPH (4 knots; 2.1 m/s)
Visibility: 6 or more miles (10+ km)
Ceiling: ceiling and visibility are OK
Clouds: unknown
Weather: no significant weather observed at this time

METAR text: ZBAA 291800Z 35002MPS CAVOK 02/00 Q1028 NOSIG
Conditions at: ZBAA (BEIJING/PEKING , CN) observed 1800 UTC 29 October 2020
Temperature: 2.0°C (36°F)
Dewpoint: 0.0°C (32°F) [RH = 87%]
Pressure (altimeter): 30.35 inches Hg (1028.0 mb)
Winds: from the N (350 degrees) at 5 MPH (4 knots; 2.1 m/s)
Visibility: 6 or more miles (10+ km)
Ceiling: ceiling and visibility are OK
Clouds: unknown
Weather: no significant weather observed at this time

METAR text: ZBAA 291730Z VRB01MPS CAVOK 03/01 Q1028 NOSIG
Conditions at: ZBAA (BEIJING/PEKING , CN) observed 1730 UTC 29 October 2020
Temperature: 3.0°C (37°F)
Dewpoint: 1.0°C (34°F) [RH = 87%]
Pressure (altimeter): 30.35 inches Hg (1028.0 mb)
Winds: variable direction winds at 2 MPH (2 knots; 1.0 m/s)
Visibility: 6 or more miles (10+ km)
Ceiling: ceiling and visibility are OK
Clouds: unknown
Weather: no significant weather observed at this time

METAR text: ZBAA 291700Z 36002MPS CAVOK 02/00 Q1028 NOSIG
Conditions at: ZBAA (BEIJING/PEKING , CN) observed 1700 UTC 29 October 2020
Temperature: 2.0°C (36°F)
Dewpoint: 0.0°C (32°F) [RH = 87%]
Pressure (altimeter): 30.35 inches Hg (1028.0 mb)
Winds: from the N (360 degrees) at 5 MPH (4 knots; 2.1 m/s)
Visibility: 6 or more miles (10+ km)
Ceiling: ceiling and visibility are OK
Clouds: unknown
Weather: no significant weather observed at this time

METAR text: ZBAA 291630Z 36001MPS CAVOK 03/01 Q1027 NOSIG
Conditions at: ZBAA (BEIJING/PEKING , CN) observed 1630 UTC 29 October 2020
Temperature: 3.0°C (37°F)
Dewpoint: 1.0°C (34°F) [RH = 87%]
Pressure (altimeter): 30.32 inches Hg (1027.0 mb)
Winds: from the N (360 degrees) at 2 MPH (2 knots; 1.0 m/s)
Visibility: 6 or more miles (10+ km)
Ceiling: ceiling and visibility are OK
Clouds: unknown
Weather: no significant weather observed at this time

METAR text: ZBAA 291600Z 34001MPS CAVOK 03/01 Q1027 NOSIG
Conditions at: ZBAA (BEIJING/PEKING , CN) observed 1600 UTC 29 October 2020
Temperature: 3.0°C (37°F)
Dewpoint: 1.0°C (34°F) [RH = 87%]
Pressure (altimeter): 30.32 inches Hg (1027.0 mb)
Winds: from the NNW (340 degrees) at 2 MPH (2 knots; 1.0 m/s)
Visibility: 6 or more miles (10+ km)
Ceiling: ceiling and visibility are OK
Clouds: unknown
Weather: no significant weather observed at this time

METAR text: ZBAA 291530Z 05001MPS CAVOK 03/01 Q1027 NOSIG
Conditions at: ZBAA (BEIJING/PEKING , CN) observed 1530 UTC 29 October 2020
Temperature: 3.0°C (37°F)
Dewpoint: 1.0°C (34°F) [RH = 87%]
Pressure (altimeter): 30.32 inches Hg (1027.0 mb)
Winds: from the NE (50 degrees) at 2 MPH (2 knots; 1.0 m/s)
Visibility: 6 or more miles (10+ km)
Ceiling: ceiling and visibility are OK
Clouds: unknown
Weather: no significant weather observed at this time

METAR text: ZBAA 291500Z VRB01MPS CAVOK 04/02 Q1027 NOSIG
Conditions at: ZBAA (BEIJING/PEKING , CN) observed 1500 UTC 29 October 2020
Temperature: 4.0°C (39°F)
Dewpoint: 2.0°C (36°F) [RH = 87%]
Pressure (altimeter): 30.32 inches Hg (1027.0 mb)
Winds: variable direction winds at 2 MPH (2 knots; 1.0 m/s)
Visibility: 6 or more miles (10+ km)
Ceiling: ceiling and visibility are OK
Clouds: unknown
Weather: no significant weather observed at this time

METAR text: ZBAA 291430Z 00000MPS CAVOK 04/01 Q1027 NOSIG
Conditions at: ZBAA (BEIJING/PEKING , CN) observed 1430 UTC 29 October 2020
Temperature: 4.0°C (39°F)
Dewpoint: 1.0°C (34°F) [RH = 81%]
Pressure (altimeter): 30.32 inches Hg (1027.0 mb)
Winds: calm
Visibility: 6 or more miles (10+ km)
Ceiling: ceiling and visibility are OK
Clouds: unknown
Weather: no significant weather observed at this time

METAR text: ZBAA 291400Z VRB01MPS CAVOK 04/01 Q1027 NOSIG
Conditions at: ZBAA (BEIJING/PEKING , CN) observed 1400 UTC 29 October 2020
Temperature: 4.0°C (39°F)
Dewpoint: 1.0°C (34°F) [RH = 81%]
Pressure (altimeter): 30.32 inches Hg (1027.0 mb)
Winds: variable direction winds at 2 MPH (2 knots; 1.0 m/s)
Visibility: 6 or more miles (10+ km)
Ceiling: ceiling and visibility are OK
Clouds: unknown
Weather: no significant weather observed at this time

METAR text: ZBAA 291330Z VRB01MPS CAVOK 04/01 Q1027 NOSIG
Conditions at: ZBAA (BEIJING/PEKING , CN) observed 1330 UTC 29 October 2020
Temperature: 4.0°C (39°F)
Dewpoint: 1.0°C (34°F) [RH = 81%]
Pressure (altimeter): 30.32 inches Hg (1027.0 mb)
Winds: variable direction winds at 2 MPH (2 knots; 1.0 m/s)
Visibility: 6 or more miles (10+ km)
Ceiling: ceiling and visibility are OK
Clouds: unknown
Weather: no significant weather observed at this time

METAR text: ZBAA 291300Z 06001MPS CAVOK 05/02 Q1027 NOSIG
Conditions at: ZBAA (BEIJING/PEKING , CN) observed 1300 UTC 29 October 2020
Temperature: 5.0°C (41°F)
Dewpoint: 2.0°C (36°F) [RH = 81%]
Pressure (altimeter): 30.32 inches Hg (1027.0 mb)
Winds: from the ENE (60 degrees) at 2 MPH (2 knots; 1.0 m/s)
Visibility: 6 or more miles (10+ km)
Ceiling: ceiling and visibility are OK
Clouds: unknown
Weather: no significant weather observed at this time

METAR text: ZBAA 291230Z 00000MPS CAVOK 05/02 Q1026 NOSIG
Conditions at: ZBAA (BEIJING/PEKING , CN) observed 1230 UTC 29 October 2020
Temperature: 5.0°C (41°F)
Dewpoint: 2.0°C (36°F) [RH = 81%]
Pressure (altimeter): 30.30 inches Hg (1026.0 mb)
Winds: calm
Visibility: 6 or more miles (10+ km)
Ceiling: ceiling and visibility are OK
Clouds: unknown
Weather: no significant weather observed at this time

METAR text: ZBAA 291200Z VRB01MPS CAVOK 06/02 Q1026 NOSIG
Conditions at: ZBAA (BEIJING/PEKING , CN) observed 1200 UTC 29 October 2020
Temperature: 6.0°C (43°F)
Dewpoint: 2.0°C (36°F) [RH = 75%]
Pressure (altimeter): 30.30 inches Hg (1026.0 mb)
Winds: variable direction winds at 2 MPH (2 knots; 1.0 m/s)
Visibility: 6 or more miles (10+ km)
Ceiling: ceiling and visibility are OK
Clouds: unknown
Weather: no significant weather observed at this time

METAR text: ZBAA 291130Z 00000MPS CAVOK 07/02 Q1026 NOSIG
Conditions at: ZBAA (BEIJING/PEKING , CN) observed 1130 UTC 29 October 2020
Temperature: 7.0°C (45°F)
Dewpoint: 2.0°C (36°F) [RH = 70%]
Pressure (altimeter): 30.30 inches Hg (1026.0 mb)
Winds: calm
Visibility: 6 or more miles (10+ km)
Ceiling: ceiling and visibility are OK
Clouds: unknown
Weather: no significant weather observed at this time

METAR text: ZBAA 291100Z 00000MPS CAVOK 07/02 Q1026 NOSIG
Conditions at: ZBAA (BEIJING/PEKING , CN) observed 1100 UTC 29 October 2020
Temperature: 7.0°C (45°F)
Dewpoint: 2.0°C (36°F) [RH = 70%]
Pressure (altimeter): 30.30 inches Hg (1026.0 mb)
Winds: calm
Visibility: 6 or more miles (10+ km)
Ceiling: ceiling and visibility are OK
Clouds: unknown
Weather: no significant weather observed at this time

METAR text: ZBAA 291030Z VRB01MPS CAVOK 08/02 Q1026 NOSIG
Conditions at: ZBAA (BEIJING/PEKING , CN) observed 1030 UTC 29 October 2020
Temperature: 8.0°C (46°F)
Dewpoint: 2.0°C (36°F) [RH = 66%]
Pressure (altimeter): 30.30 inches Hg (1026.0 mb)
Winds: variable direction winds at 2 MPH (2 knots; 1.0 m/s)
Visibility: 6 or more miles (10+ km)
Ceiling: ceiling and visibility are OK
Clouds: unknown
Weather: no significant weather observed at this time

METAR text: ZBAA 291000Z 08001MPS CAVOK 08/02 Q1025 NOSIG
Conditions at: ZBAA (BEIJING/PEKING , CN) observed 1000 UTC 29 October 2020
Temperature: 8.0°C (46°F)
Dewpoint: 2.0°C (36°F) [RH = 66%]
Pressure (altimeter): 30.27 inches Hg (1025.0 mb)
Winds: from the E (80 degrees) at 2 MPH (2 knots; 1.0 m/s)
Visibility: 6 or more miles (10+ km)
Ceiling: ceiling and visibility are OK
Clouds: unknown
Weather: no significant weather observed at this time

METAR text: ZBAA 290930Z 07001MPS CAVOK 09/02 Q1025 NOSIG
Conditions at: ZBAA (BEIJING/PEKING , CN) observed 0930 UTC 29 October 2020
Temperature: 9.0°C (48°F)
Dewpoint: 2.0°C (36°F) [RH = 61%]
Pressure (altimeter): 30.27 inches Hg (1025.0 mb)
Winds: from the ENE (70 degrees) at 2 MPH (2 knots; 1.0 m/s)
Visibility: 6 or more miles (10+ km)
Ceiling: ceiling and visibility are OK
Clouds: unknown
Weather: no significant weather observed at this time

METAR text: ZBAA 290900Z 05001MPS CAVOK 12/02 Q1025 NOSIG
Conditions at: ZBAA (BEIJING/PEKING , CN) observed 0900 UTC 29 October 2020
Temperature: 12.0°C (54°F)
Dewpoint: 2.0°C (36°F) [RH = 50%]
Pressure (altimeter): 30.27 inches Hg (1025.0 mb)
Winds: from the NE (50 degrees) at 2 MPH (2 knots; 1.0 m/s)
Visibility: 6 or more miles (10+ km)
Ceiling: ceiling and visibility are OK
Clouds: unknown
Weather: no significant weather observed at this time

METAR text: ZBAA 290830Z 06001MPS CAVOK 15/02 Q1025 NOSIG
Conditions at: ZBAA (BEIJING/PEKING , CN) observed 0830 UTC 29 October 2020
Temperature: 15.0°C (59°F)
Dewpoint: 2.0°C (36°F) [RH = 41%]
Pressure (altimeter): 30.27 inches Hg (1025.0 mb)
Winds: from the ENE (60 degrees) at 2 MPH (2 knots; 1.0 m/s)
Visibility: 6 or more miles (10+ km)
Ceiling: ceiling and visibility are OK
Clouds: unknown
Weather: no significant weather observed at this time

METAR text: ZBAA 290800Z VRB01MPS CAVOK 17/M02 Q1025 NOSIG
Conditions at: ZBAA (BEIJING/PEKING , CN) observed 0800 UTC 29 October 2020
Temperature: 17.0°C (63°F)
Dewpoint: -2.0°C (28°F) [RH = 27%]
Pressure (altimeter): 30.27 inches Hg (1025.0 mb)
Winds: variable direction winds at 2 MPH (2 knots; 1.0 m/s)
Visibility: 6 or more miles (10+ km)
Ceiling: ceiling and visibility are OK
Clouds: unknown
Weather: no significant weather observed at this time

METAR text: ZBAA 290730Z VRB01MPS CAVOK 18/M03 Q1025 NOSIG
Conditions at: ZBAA (BEIJING/PEKING , CN) observed 0730 UTC 29 October 2020
Temperature: 18.0°C (64°F)
Dewpoint: -3.0°C (27°F) [RH = 24%]
Pressure (altimeter): 30.27 inches Hg (1025.0 mb)
Winds: variable direction winds at 2 MPH (2 knots; 1.0 m/s)
Visibility: 6 or more miles (10+ km)
Ceiling: ceiling and visibility are OK
Clouds: unknown
Weather: no significant weather observed at this time

METAR text: ZBAA 290700Z VRB01MPS CAVOK 18/M03 Q1025 NOSIG
Conditions at: ZBAA (BEIJING/PEKING , CN) observed 0700 UTC 29 October 2020
Temperature: 18.0°C (64°F)
Dewpoint: -3.0°C (27°F) [RH = 24%]
Pressure (altimeter): 30.27 inches Hg (1025.0 mb)
Winds: variable direction winds at 2 MPH (2 knots; 1.0 m/s)
Visibility: 6 or more miles (10+ km)
Ceiling: ceiling and visibility are OK
Clouds: unknown
Weather: no significant weather observed at this time

METAR text: ZBAA 290630Z VRB02MPS CAVOK 18/M03 Q1025 NOSIG
Conditions at: ZBAA (BEIJING/PEKING , CN) observed 0630 UTC 29 October 2020
Temperature: 18.0°C (64°F)
Dewpoint: -3.0°C (27°F) [RH = 24%]
Pressure (altimeter): 30.27 inches Hg (1025.0 mb)
Winds: variable direction winds at 5 MPH (4 knots; 2.1 m/s)
Visibility: 6 or more miles (10+ km)
Ceiling: ceiling and visibility are OK
Clouds: unknown
Weather: no significant weather observed at this time

METAR text: ZBAA 290600Z VRB01MPS CAVOK 17/M03 Q1025 NOSIG
Conditions at: ZBAA (BEIJING/PEKING , CN) observed 0600 UTC 29 October 2020
Temperature: 17.0°C (63°F)
Dewpoint: -3.0°C (27°F) [RH = 25%]
Pressure (altimeter): 30.27 inches Hg (1025.0 mb)
Winds: variable direction winds at 2 MPH (2 knots; 1.0 m/s)
Visibility: 6 or more miles (10+ km)
Ceiling: ceiling and visibility are OK
Clouds: unknown
Weather: no significant weather observed at this time

METAR text: ZBAA 290530Z 29002MPS 210V360 CAVOK 17/M03 Q1026 NOSIG
Conditions at: ZBAA (BEIJING/PEKING , CN) observed 0530 UTC 29 October 2020
Temperature: 17.0°C (63°F)
Dewpoint: -3.0°C (27°F) [RH = 25%]
Pressure (altimeter): 30.30 inches Hg (1026.0 mb)
Winds: from the WNW (290 degrees) at 5 MPH (4 knots; 2.1 m/s)
Visibility: 6 or more miles (10+ km)
Ceiling: ceiling and visibility are OK
Clouds: unknown
Weather: no significant weather observed at this time

METAR text: ZBAA 290500Z VRB01MPS CAVOK 17/M03 Q1026 NOSIG
Conditions at: ZBAA (BEIJING/PEKING , CN) observed 0500 UTC 29 October 2020
Temperature: 17.0°C (63°F)
Dewpoint: -3.0°C (27°F) [RH = 25%]
Pressure (altimeter): 30.30 inches Hg (1026.0 mb)
Winds: variable direction winds at 2 MPH (2 knots; 1.0 m/s)
Visibility: 6 or more miles (10+ km)
Ceiling: ceiling and visibility are OK
Clouds: unknown
Weather: no significant weather observed at this time

METAR text: ZBAA 290430Z VRB01MPS CAVOK 16/M04 Q1027 NOSIG
Conditions at: ZBAA (BEIJING/PEKING , CN) observed 0430 UTC 29 October 2020
Temperature: 16.0°C (61°F)
Dewpoint: -4.0°C (25°F) [RH = 25%]
Pressure (altimeter): 30.32 inches Hg (1027.0 mb)
Winds: variable direction winds at 2 MPH (2 knots; 1.0 m/s)
Visibility: 6 or more miles (10+ km)
Ceiling: ceiling and visibility are OK
Clouds: unknown
Weather: no significant weather observed at this time

METAR text: ZBAA 290400Z VRB01MPS CAVOK 16/M04 Q1027 NOSIG
Conditions at: ZBAA (BEIJING/PEKING , CN) observed 0400 UTC 29 October 2020
Temperature: 16.0°C (61°F)
Dewpoint: -4.0°C (25°F) [RH = 25%]
Pressure (altimeter): 30.32 inches Hg (1027.0 mb)
Winds: variable direction winds at 2 MPH (2 knots; 1.0 m/s)
Visibility: 6 or more miles (10+ km)
Ceiling: ceiling and visibility are OK
Clouds: unknown
Weather: no significant weather observed at this time

METAR text: ZBAA 290330Z VRB01MPS CAVOK 14/M04 Q1028 NOSIG
Conditions at: ZBAA (BEIJING/PEKING , CN) observed 0330 UTC 29 October 2020
Temperature: 14.0°C (57°F)
Dewpoint: -4.0°C (25°F) [RH = 28%]
Pressure (altimeter): 30.35 inches Hg (1028.0 mb)
Winds: variable direction winds at 2 MPH (2 knots; 1.0 m/s)
Visibility: 6 or more miles (10+ km)
Ceiling: ceiling and visibility are OK
Clouds: unknown
Weather: no significant weather observed at this time

METAR text: ZBAA 290300Z 36002MPS 310V030 CAVOK 13/M03 Q1028 NOSIG
Conditions at: ZBAA (BEIJING/PEKING , CN) observed 0300 UTC 29 October 2020
Temperature: 13.0°C (55°F)
Dewpoint: -3.0°C (27°F) [RH = 33%]
Pressure (altimeter): 30.35 inches Hg (1028.0 mb)
Winds: from the N (360 degrees) at 5 MPH (4 knots; 2.1 m/s)
Visibility: 6 or more miles (10+ km)
Ceiling: ceiling and visibility are OK
Clouds: unknown
Weather: no significant weather observed at this time

METAR text: ZBAA 290230Z VRB01MPS CAVOK 11/M02 Q1028 NOSIG
Conditions at: ZBAA (BEIJING/PEKING , CN) observed 0230 UTC 29 October 2020
Temperature: 11.0°C (52°F)
Dewpoint: -2.0°C (28°F) [RH = 40%]
Pressure (altimeter): 30.35 inches Hg (1028.0 mb)
Winds: variable direction winds at 2 MPH (2 knots; 1.0 m/s)
Visibility: 6 or more miles (10+ km)
Ceiling: ceiling and visibility are OK
Clouds: unknown
Weather: no significant weather observed at this time

METAR text: ZBAA 290200Z 01002MPS CAVOK 09/M02 Q1028 NOSIG
Conditions at: ZBAA (BEIJING/PEKING , CN) observed 0200 UTC 29 October 2020
Temperature: 9.0°C (48°F)
Dewpoint: -2.0°C (28°F) [RH = 46%]
Pressure (altimeter): 30.35 inches Hg (1028.0 mb)
Winds: from the N (10 degrees) at 5 MPH (4 knots; 2.1 m/s)
Visibility: 6 or more miles (10+ km)
Ceiling: ceiling and visibility are OK
Clouds: unknown
Weather: no significant weather observed at this time

METAR text: ZBAA 290130Z VRB01MPS CAVOK 09/M01 Q1028 NOSIG
Conditions at: ZBAA (BEIJING/PEKING , CN) observed 0130 UTC 29 October 2020
Temperature: 9.0°C (48°F)
Dewpoint: -1.0°C (30°F) [RH = 49%]
Pressure (altimeter): 30.35 inches Hg (1028.0 mb)
Winds: variable direction winds at 2 MPH (2 knots; 1.0 m/s)
Visibility: 6 or more miles (10+ km)
Ceiling: ceiling and visibility are OK
Clouds: unknown
Weather: no significant weather observed at this time

METAR text: ZBAA 290100Z 36001MPS CAVOK 08/01 Q1028 NOSIG
Conditions at: ZBAA (BEIJING/PEKING , CN) observed 0100 UTC 29 October 2020
Temperature: 8.0°C (46°F)
Dewpoint: 1.0°C (34°F) [RH = 61%]
Pressure (altimeter): 30.35 inches Hg (1028.0 mb)
Winds: from the N (360 degrees) at 2 MPH (2 knots; 1.0 m/s)
Visibility: 6 or more miles (10+ km)
Ceiling: ceiling and visibility are OK
Clouds: unknown
Weather: no significant weather observed at this time

METAR text: ZBAA 290030Z VRB01MPS CAVOK 07/01 Q1028 NOSIG
Conditions at: ZBAA (BEIJING/PEKING , CN) observed 0030 UTC 29 October 2020
Temperature: 7.0°C (45°F)
Dewpoint: 1.0°C (34°F) [RH = 66%]
Pressure (altimeter): 30.35 inches Hg (1028.0 mb)
Winds: variable direction winds at 2 MPH (2 knots; 1.0 m/s)
Visibility: 6 or more miles (10+ km)
Ceiling: ceiling and visibility are OK
Clouds: unknown
Weather: no significant weather observed at this time

METAR text: ZBAA 290000Z VRB01MPS CAVOK 06/02 Q1027 NOSIG
Conditions at: ZBAA (BEIJING/PEKING , CN) observed 0000 UTC 29 October 2020
Temperature: 6.0°C (43°F)
Dewpoint: 2.0°C (36°F) [RH = 75%]
Pressure (altimeter): 30.32 inches Hg (1027.0 mb)
Winds: variable direction winds at 2 MPH (2 knots; 1.0 m/s)
Visibility: 6 or more miles (10+ km)
Ceiling: ceiling and visibility are OK
Clouds: unknown
Weather: no significant weather observed at this time

METAR text: ZBAA 282330Z 05001MPS CAVOK 04/02 Q1027 NOSIG
Conditions at: ZBAA (BEIJING/PEKING , CN) observed 2330 UTC 28 October 2020
Temperature: 4.0°C (39°F)
Dewpoint: 2.0°C (36°F) [RH = 87%]
Pressure (altimeter): 30.32 inches Hg (1027.0 mb)
Winds: from the NE (50 degrees) at 2 MPH (2 knots; 1.0 m/s)
Visibility: 6 or more miles (10+ km)
Ceiling: ceiling and visibility are OK
Clouds: unknown
Weather: no significant weather observed at this time

METAR text: ZBAA 282300Z 02001MPS CAVOK 04/M00 Q1027 NOSIG
Conditions at: ZBAA (BEIJING/PEKING , CN) observed 2300 UTC 28 October 2020
Temperature: 4.0°C (39°F)
Dewpoint: 0.0°C (32°F) [RH = 75%]
Pressure (altimeter): 30.32 inches Hg (1027.0 mb)
Winds: from the NNE (20 degrees) at 2 MPH (2 knots; 1.0 m/s)
Visibility: 6 or more miles (10+ km)
Ceiling: ceiling and visibility are OK
Clouds: unknown
Weather: no significant weather observed at this time

METAR text: ZBAA 282230Z 01002MPS CAVOK 04/M00 Q1027 NOSIG
Conditions at: ZBAA (BEIJING/PEKING , CN) observed 2230 UTC 28 October 2020
Temperature: 4.0°C (39°F)
Dewpoint: 0.0°C (32°F) [RH = 75%]
Pressure (altimeter): 30.32 inches Hg (1027.0 mb)
Winds: from the N (10 degrees) at 5 MPH (4 knots; 2.1 m/s)
Visibility: 6 or more miles (10+ km)
Ceiling: ceiling and visibility are OK
Clouds: unknown
Weather: no significant weather observed at this time

METAR text: ZBAA 282200Z 35002MPS 300V010 CAVOK 03/00 Q1027 NOSIG
Conditions at: ZBAA (BEIJING/PEKING , CN) observed 2200 UTC 28 October 2020
Temperature: 3.0°C (37°F)
Dewpoint: 0.0°C (32°F) [RH = 81%]
Pressure (altimeter): 30.32 inches Hg (1027.0 mb)
Winds: from the N (350 degrees) at 5 MPH (4 knots; 2.1 m/s)
Visibility: 6 or more miles (10+ km)
Ceiling: ceiling and visibility are OK
Clouds: unknown
Weather: no significant weather observed at this time

METAR text: ZBAA 282130Z 36001MPS CAVOK 03/00 Q1027 NOSIG
Conditions at: ZBAA (BEIJING/PEKING , CN) observed 2130 UTC 28 October 2020
Temperature: 3.0°C (37°F)
Dewpoint: 0.0°C (32°F) [RH = 81%]
Pressure (altimeter): 30.32 inches Hg (1027.0 mb)
Winds: from the N (360 degrees) at 2 MPH (2 knots; 1.0 m/s)
Visibility: 6 or more miles (10+ km)
Ceiling: ceiling and visibility are OK
Clouds: unknown
Weather: no significant weather observed at this time

METAR text: ZBAA 282100Z 36001MPS CAVOK 02/M00 Q1027 NOSIG
Conditions at: ZBAA (BEIJING/PEKING , CN) observed 2100 UTC 28 October 2020
Temperature: 2.0°C (36°F)
Dewpoint: 0.0°C (32°F) [RH = 87%]
Pressure (altimeter): 30.32 inches Hg (1027.0 mb)
Winds: from the N (360 degrees) at 2 MPH (2 knots; 1.0 m/s)
Visibility: 6 or more miles (10+ km)
Ceiling: ceiling and visibility are OK
Clouds: unknown
Weather: no significant weather observed at this time

METAR text: ZBAA 282030Z 00000MPS CAVOK 01/M01 Q1027 NOSIG
Conditions at: ZBAA (BEIJING/PEKING , CN) observed 2030 UTC 28 October 2020
Temperature: 1.0°C (34°F)
Dewpoint: -1.0°C (30°F) [RH = 86%]
Pressure (altimeter): 30.32 inches Hg (1027.0 mb)
Winds: calm
Visibility: 6 or more miles (10+ km)
Ceiling: ceiling and visibility are OK
Clouds: unknown
Weather: no significant weather observed at this time

METAR text: ZBAA 282000Z 35001MPS CAVOK 02/M01 Q1027 NOSIG
Conditions at: ZBAA (BEIJING/PEKING , CN) observed 2000 UTC 28 October 2020
Temperature: 2.0°C (36°F)
Dewpoint: -1.0°C (30°F) [RH = 80%]
Pressure (altimeter): 30.32 inches Hg (1027.0 mb)
Winds: from the N (350 degrees) at 2 MPH (2 knots; 1.0 m/s)
Visibility: 6 or more miles (10+ km)
Ceiling: ceiling and visibility are OK
Clouds: unknown
Weather: no significant weather observed at this time

METAR text: ZBAA 281930Z 00000MPS CAVOK 03/00 Q1027 NOSIG
Conditions at: ZBAA (BEIJING/PEKING , CN) observed 1930 UTC 28 October 2020
Temperature: 3.0°C (37°F)
Dewpoint: 0.0°C (32°F) [RH = 81%]
Pressure (altimeter): 30.32 inches Hg (1027.0 mb)
Winds: calm
Visibility: 6 or more miles (10+ km)
Ceiling: ceiling and visibility are OK
Clouds: unknown
Weather: no significant weather observed at this time

METAR text: ZBAA 281900Z VRB01MPS CAVOK 03/M00 Q1027 NOSIG
Conditions at: ZBAA (BEIJING/PEKING , CN) observed 1900 UTC 28 October 2020
Temperature: 3.0°C (37°F)
Dewpoint: 0.0°C (32°F) [RH = 81%]
Pressure (altimeter): 30.32 inches Hg (1027.0 mb)
Winds: variable direction winds at 2 MPH (2 knots; 1.0 m/s)
Visibility: 6 or more miles (10+ km)
Ceiling: ceiling and visibility are OK
Clouds: unknown
Weather: no significant weather observed at this time

Forecast for: ZBAA (BEIJING/PEKING , CN)
Text: TAF ZBAA 300301Z 3006/3106 18004MPS 5000 BR NSC TX19/3106Z TN05/3021Z
Forecast period: 0600 UTC 30 October 2020 to 0200 UTC 31 October 2020
Forecast type: FROM: standard forecast or significant change
Winds: from the S (180 degrees) at 9 MPH (8 knots; 4.1 m/s)
Visibility: 3 miles (5 km)
Ceiling: unknown
Clouds: missing
Weather: BR  (mist)
Text: BECMG 3102/3103 31008G14MPS
Forecast period: 0200 to 0600 UTC 31 October 2020
Forecast type: BECOMING: Conditions expected to become as follows by 0300 UTC 31 October 2020
Winds: from the NW (310 degrees) at 18 MPH (16 knots; 8.2 m/s)
gusting to 31 MPH (27 knots; 13.9 m/s)
Visibility: 3 miles (5 km)
Ceiling: unknown
Clouds: missing
Weather: BR  (mist)